Terminal Aerodrome Forecast
Issued by NWS

Home | Current Version | Previous Version | Text Only | Print | Product List | Glossary Off
Versions: 1 2 3 4 5 6 7 8 9 10 11 12 13 14 15 16 17 18 19 20

000
FTUS43 KMPX 180500
TAFAXN
TAF
KAXN 180529Z 1806/1906 11006KT 1SM BR OVC002
     FM180800 17004KT 1/2SM -DZ FG OVC001
      TEMPO 1809/1813 1 1/2SM -TSRA BR OVC004CB
     FM181500 22008KT P6SM BKN005 OVC025
     FM181900 25008KT P6SM VCTS BKN050CB OVC100
     FM190000 32006KT P6SM OVC100=

USA.gov is the U.S. government's official web portal to all federal, state and local government web resources and services.